sensor_id;sensor_type;location;lat;lon;timestamp;pressure;altitude;pressure_sealevel;temperature;humidity
62703;BME280;66022;50.448;18.122;2023-06-10T00:02:18;98972.55;;;17.10;100.00
62703;BME280;66022;50.448;18.122;2023-06-10T00:06:26;98972.65;;;17.10;100.00
62703;BME280;66022;50.448;18.122;2023-06-10T00:10:34;98973.30;;;17.11;100.00
62703;BME280;66022;50.448;18.122;2023-06-10T00:14:42;98973.97;;;17.11;100.00
62703;BME280;66022;50.448;18.122;2023-06-10T00:18:50;98972.27;;;17.11;100.00
62703;BME280;66022;50.448;18.122;2023-06-10T00:23:00;98970.40;;;17.11;100.00
62703;BME280;66022;50.448;18.122;2023-06-10T00:27:06;98968.87;;;17.11;100.00
62703;BME280;66022;50.448;18.122;2023-06-10T00:31:14;98967.72;;;17.12;100.00
62703;BME280;66022;50.448;18.122;2023-06-10T00:35:21;98966.27;;;17.10;100.00
62703;BME280;66022;50.448;18.122;2023-06-10T00:39:30;98964.59;;;17.11;100.00
62703;BME280;66022;50.448;18.122;2023-06-10T00:43:38;98963.31;;;17.12;100.00
62703;BME280;66022;50.448;18.122;2023-06-10T00:47:46;98962.77;;;17.11;100.00
62703;BME280;66022;50.448;18.122;2023-06-10T00:51:54;98963.23;;;17.11;100.00
62703;BME280;66022;50.448;18.122;2023-06-10T00:56:02;98963.65;;;17.10;100.00
62703;BME280;66022;50.448;18.122;2023-06-10T01:00:10;98964.42;;;17.11;100.00
62703;BME280;66022;50.448;18.122;2023-06-10T01:04:18;98964.76;;;17.12;100.00
62703;BME280;66022;50.448;18.122;2023-06-10T01:08:32;98963.92;;;17.11;100.00
62703;BME280;66022;50.448;18.122;2023-06-10T01:12:55;98963.40;;;17.12;100.00
62703;BME280;66022;50.448;18.122;2023-06-10T01:16:43;98963.23;;;17.11;100.00
62703;BME280;66022;50.448;18.122;2023-06-10T01:20:51;98963.06;;;17.11;100.00
62703;BME280;66022;50.448;18.122;2023-06-10T01:24:59;98962.36;;;17.10;100.00
62703;BME280;66022;50.448;18.122;2023-06-10T01:29:25;98962.77;;;17.11;100.00
62703;BME280;66022;50.448;18.122;2023-06-10T01:33:16;98963.31;;;17.10;100.00
62703;BME280;66022;50.448;18.122;2023-06-10T01:37:23;98962.47;;;17.08;100.00
62703;BME280;66022;50.448;18.122;2023-06-10T01:41:31;98962.51;;;17.08;100.00
62703;BME280;66022;50.448;18.122;2023-06-10T01:45:39;98963.03;;;17.06;100.00
62703;BME280;66022;50.448;18.122;2023-06-10T01:49:47;98963.71;;;17.06;100.00
62703;BME280;66022;50.448;18.122;2023-06-10T01:53:55;98965.17;;;17.05;99.97
62703;BME280;66022;50.448;18.122;2023-06-10T01:58:03;98966.16;;;17.04;100.00
62703;BME280;66022;50.448;18.122;2023-06-10T02:02:11;98967.28;;;17.04;100.00
62703;BME280;66022;50.448;18.122;2023-06-10T02:06:19;98967.80;;;17.02;100.00
62703;BME280;66022;50.448;18.122;2023-06-10T02:10:27;98968.79;;;17.01;100.00
62703;BME280;66022;50.448;18.122;2023-06-10T02:14:35;98969.84;;;17.00;100.00
62703;BME280;66022;50.448;18.122;2023-06-10T02:18:43;98969.58;;;16.99;100.00
62703;BME280;66022;50.448;18.122;2023-06-10T02:22:51;98969.39;;;16.98;100.00
62703;BME280;66022;50.448;18.122;2023-06-10T02:26:59;98968.98;;;16.96;100.00
62703;BME280;66022;50.448;18.122;2023-06-10T02:31:07;98968.62;;;16.95;100.00
62703;BME280;66022;50.448;18.122;2023-06-10T02:35:15;98968.97;;;16.93;100.00
62703;BME280;66022;50.448;18.122;2023-06-10T02:39:25;98969.31;;;16.92;100.00
62703;BME280;66022;50.448;18.122;2023-06-10T02:43:31;98969.80;;;16.90;100.00
62703;BME280;66022;50.448;18.122;2023-06-10T02:47:39;98970.24;;;16.88;100.00
62703;BME280;66022;50.448;18.122;2023-06-10T02:51:47;98970.62;;;16.88;100.00
62703;BME280;66022;50.448;18.122;2023-06-10T02:55:55;98972.49;;;16.86;100.00
62703;BME280;66022;50.448;18.122;2023-06-10T03:00:03;98974.87;;;16.86;100.00
62703;BME280;66022;50.448;18.122;2023-06-10T03:04:11;98978.27;;;16.85;100.00
62703;BME280;66022;50.448;18.122;2023-06-10T03:08:19;98981.49;;;16.85;100.00
62703;BME280;66022;50.448;18.122;2023-06-10T03:12:27;98984.14;;;16.86;100.00
62703;BME280;66022;50.448;18.122;2023-06-10T03:16:35;98987.02;;;16.86;100.00
62703;BME280;66022;50.448;18.122;2023-06-10T03:20:43;98990.41;;;16.87;100.00
62703;BME280;66022;50.448;18.122;2023-06-10T03:24:51;98994.89;;;16.87;99.98
62703;BME280;66022;50.448;18.122;2023-06-10T03:28:59;98999.13;;;16.88;100.00
62703;BME280;66022;50.448;18.122;2023-06-10T03:33:07;99003.31;;;16.87;100.00
62703;BME280;66022;50.448;18.122;2023-06-10T03:37:15;99006.40;;;16.86;100.00
62703;BME280;66022;50.448;18.122;2023-06-10T03:41:23;99007.21;;;16.87;100.00
62703;BME280;66022;50.448;18.122;2023-06-10T03:45:31;99008.56;;;16.87;100.00
62703;BME280;66022;50.448;18.122;2023-06-10T03:49:39;99009.38;;;16.90;100.00
62703;BME280;66022;50.448;18.122;2023-06-10T03:53:47;99010.18;;;16.92;100.00
62703;BME280;66022;50.448;18.122;2023-06-10T03:57:55;99011.00;;;16.93;100.00
62703;BME280;66022;50.448;18.122;2023-06-10T04:02:03;99011.49;;;16.96;100.00
62703;BME280;66022;50.448;18.122;2023-06-10T04:06:11;99011.88;;;16.99;100.00
62703;BME280;66022;50.448;18.122;2023-06-10T04:10:19;99012.00;;;17.03;100.00
62703;BME280;66022;50.448;18.122;2023-06-10T04:14:27;99011.19;;;17.08;100.00
62703;BME280;66022;50.448;18.122;2023-06-10T04:18:35;99012.55;;;17.18;100.00
62703;BME280;66022;50.448;18.122;2023-06-10T04:22:43;99013.16;;;17.30;98.38
62703;BME280;66022;50.448;18.122;2023-06-10T04:26:51;99013.37;;;17.46;98.98
62703;BME280;66022;50.448;18.122;2023-06-10T04:30:59;99014.36;;;17.66;95.79
62703;BME280;66022;50.448;18.122;2023-06-10T04:35:07;99015.99;;;17.90;93.82
62703;BME280;66022;50.448;18.122;2023-06-10T04:39:15;99017.27;;;18.09;95.85
62703;BME280;66022;50.448;18.122;2023-06-10T04:43:23;99018.98;;;18.25;95.45
62703;BME280;66022;50.448;18.122;2023-06-10T04:47:31;99020.28;;;18.37;96.81
62703;BME280;66022;50.448;18.122;2023-06-10T04:51:43;99021.26;;;18.46;96.29
62703;BME280;66022;50.448;18.122;2023-06-10T04:55:47;99021.38;;;18.48;100.00
62703;BME280;66022;50.448;18.122;2023-06-10T04:59:55;99021.37;;;18.53;94.18
62703;BME280;66022;50.448;18.122;2023-06-10T05:04:03;99021.01;;;18.58;94.12
62703;BME280;66022;50.448;18.122;2023-06-10T05:08:11;99020.70;;;18.61;93.26
62703;BME280;66022;50.448;18.122;2023-06-10T05:12:19;99020.45;;;18.66;94.61
62703;BME280;66022;50.448;18.122;2023-06-10T05:16:27;99021.94;;;18.70;95.27
62703;BME280;66022;50.448;18.122;2023-06-10T05:20:35;99023.55;;;18.75;92.50
62703;BME280;66022;50.448;18.122;2023-06-10T05:24:43;99024.91;;;18.90;91.70
62703;BME280;66022;50.448;18.122;2023-06-10T05:28:51;99026.98;;;19.60;79.71
62703;BME280;66022;50.448;18.122;2023-06-10T05:32:59;99028.53;;;20.54;74.48
62703;BME280;66022;50.448;18.122;2023-06-10T05:37:07;99031.54;;;21.47;71.98
62703;BME280;66022;50.448;18.122;2023-06-10T05:41:15;99033.95;;;22.21;70.21
62703;BME280;66022;50.448;18.122;2023-06-10T05:45:23;99036.05;;;22.72;71.94
62703;BME280;66022;50.448;18.122;2023-06-10T05:49:31;99037.41;;;23.15;70.16
62703;BME280;66022;50.448;18.122;2023-06-10T05:53:39;99039.23;;;23.53;71.90
62703;BME280;66022;50.448;18.122;2023-06-10T05:57:47;99042.11;;;23.80;71.69
62703;BME280;66022;50.448;18.122;2023-06-10T06:01:55;99043.87;;;24.07;69.73
62703;BME280;66022;50.448;18.122;2023-06-10T06:06:03;99045.29;;;24.24;72.85
62703;BME280;66022;50.448;18.122;2023-06-10T06:10:11;99047.19;;;24.23;71.83
62703;BME280;66022;50.448;18.122;2023-06-10T06:14:19;99047.71;;;24.10;73.91
62703;BME280;66022;50.448;18.122;2023-06-10T06:18:27;99048.56;;;23.95;74.08
62703;BME280;66022;50.448;18.122;2023-06-10T06:22:35;99048.78;;;23.90;73.53
62703;BME280;66022;50.448;18.122;2023-06-10T06:26:43;99049.60;;;23.75;75.92
62703;BME280;66022;50.448;18.122;2023-06-10T06:30:51;99050.22;;;23.58;76.73
62703;BME280;66022;50.448;18.122;2023-06-10T06:34:59;99051.65;;;23.40;77.27
62703;BME280;66022;50.448;18.122;2023-06-10T06:39:07;99053.27;;;23.18;77.96
62703;BME280;66022;50.448;18.122;2023-06-10T06:43:15;99056.23;;;22.97;78.37
62703;BME280;66022;50.448;18.122;2023-06-10T06:47:23;99060.27;;;22.73;79.07
62703;BME280;66022;50.448;18.122;2023-06-10T06:51:31;99063.78;;;22.57;79.28
62703;BME280;66022;50.448;18.122;2023-06-10T06:55:39;99068.62;;;22.39;82.94
62703;BME280;66022;50.448;18.122;2023-06-10T06:59:47;99072.47;;;22.27;79.48
62703;BME280;66022;50.448;18.122;2023-06-10T07:03:55;99075.95;;;22.16;80.04
62703;BME280;66022;50.448;18.122;2023-06-10T07:08:03;99080.69;;;22.04;80.42
62703;BME280;66022;50.448;18.122;2023-06-10T07:12:11;99083.36;;;22.01;79.80
62703;BME280;66022;50.448;18.122;2023-06-10T07:16:19;99085.22;;;22.00;83.02
62703;BME280;66022;50.448;18.122;2023-06-10T07:20:27;99087.87;;;22.04;79.31
62703;BME280;66022;50.448;18.122;2023-06-10T07:24:35;99091.24;;;22.08;79.21
62703;BME280;66022;50.448;18.122;2023-06-10T07:28:43;99094.69;;;22.12;80.14
62703;BME280;66022;50.448;18.122;2023-06-10T07:32:51;99098.05;;;22.20;78.55
62703;BME280;66022;50.448;18.122;2023-06-10T07:36:59;99100.98;;;22.26;80.54
62703;BME280;66022;50.448;18.122;2023-06-10T07:41:07;99104.69;;;22.32;79.00
62703;BME280;66022;50.448;18.122;2023-06-10T07:45:15;99108.44;;;22.37;81.02
62703;BME280;66022;50.448;18.122;2023-06-10T07:49:23;99111.80;;;22.41;79.19
62703;BME280;66022;50.448;18.122;2023-06-10T07:53:31;99115.52;;;22.45;78.74
62703;BME280;66022;50.448;18.122;2023-06-10T07:57:39;99118.38;;;22.46;79.80
62703;BME280;66022;50.448;18.122;2023-06-10T08:01:47;99122.27;;;22.52;78.04
62703;BME280;66022;50.448;18.122;2023-06-10T08:05:55;99125.48;;;22.55;81.04
62703;BME280;66022;50.448;18.122;2023-06-10T08:10:04;99129.28;;;22.62;77.56
62703;BME280;66022;50.448;18.122;2023-06-10T08:14:11;99133.03;;;22.65;77.70
62703;BME280;66022;50.448;18.122;2023-06-10T08:18:19;99136.44;;;22.65;78.06
62703;BME280;66022;50.448;18.122;2023-06-10T08:22:27;99140.06;;;22.65;77.67
62703;BME280;66022;50.448;18.122;2023-06-10T08:26:35;99143.30;;;22.65;78.43
62703;BME280;66022;50.448;18.122;2023-06-10T08:30:43;99145.59;;;22.67;77.08
62703;BME280;66022;50.448;18.122;2023-06-10T08:34:51;99147.33;;;22.69;77.67
62703;BME280;66022;50.448;18.122;2023-06-10T08:38:59;99149.39;;;22.69;77.27
62703;BME280;66022;50.448;18.122;2023-06-10T08:43:07;99151.59;;;22.68;76.92
62703;BME280;66022;50.448;18.122;2023-06-10T08:47:15;99153.80;;;22.66;79.87
62703;BME280;66022;50.448;18.122;2023-06-10T08:51:23;99156.66;;;22.65;78.47
62703;BME280;66022;50.448;18.122;2023-06-10T08:59:39;99160.13;;;22.64;79.40
62703;BME280;66022;50.448;18.122;2023-06-10T09:03:48;99160.13;;;22.71;78.47
62703;BME280;66022;50.448;18.122;2023-06-10T09:07:56;99160.92;;;22.78;78.31
62703;BME280;66022;50.448;18.122;2023-06-10T09:12:03;99161.47;;;22.91;77.29
62703;BME280;66022;50.448;18.122;2023-06-10T09:16:11;99161.44;;;23.03;78.49
62703;BME280;66022;50.448;18.122;2023-06-10T09:20:19;99163.09;;;23.20;77.12
62703;BME280;66022;50.448;18.122;2023-06-10T09:24:27;99164.73;;;23.30;76.64
62703;BME280;66022;50.448;18.122;2023-06-10T09:28:35;99165.05;;;23.37;77.02
62703;BME280;66022;50.448;18.122;2023-06-10T09:32:43;99164.03;;;23.51;76.01
62703;BME280;66022;50.448;18.122;2023-06-10T09:36:51;99162.92;;;23.72;75.50
62703;BME280;66022;50.448;18.122;2023-06-10T09:40:59;99161.78;;;23.92;74.12
62703;BME280;66022;50.448;18.122;2023-06-10T09:45:07;99159.99;;;24.09;73.57
62703;BME280;66022;50.448;18.122;2023-06-10T09:49:15;99156.67;;;24.34;71.29
62703;BME280;66022;50.448;18.122;2023-06-10T09:53:23;99154.53;;;24.61;72.57
62703;BME280;66022;50.448;18.122;2023-06-10T09:57:32;99154.01;;;24.81;71.52
62703;BME280;66022;50.448;18.122;2023-06-10T10:01:39;99151.56;;;25.01;70.34
62703;BME280;66022;50.448;18.122;2023-06-10T10:05:47;99151.61;;;25.17;68.47
62703;BME280;66022;50.448;18.122;2023-06-10T10:09:55;99150.95;;;25.41;69.06
62703;BME280;66022;50.448;18.122;2023-06-10T10:14:03;99149.95;;;25.57;66.74
62703;BME280;66022;50.448;18.122;2023-06-10T10:18:11;99148.95;;;25.75;66.30
62703;BME280;66022;50.448;18.122;2023-06-10T10:26:27;99142.86;;;26.16;64.25
62703;BME280;66022;50.448;18.122;2023-06-10T10:30:38;99140.44;;;26.40;64.63
62703;BME280;66022;50.448;18.122;2023-06-10T10:34:57;99136.94;;;26.69;64.38
62703;BME280;66022;50.448;18.122;2023-06-10T10:38:51;99133.51;;;26.93;67.01
62703;BME280;66022;50.448;18.122;2023-06-10T10:42:59;99130.05;;;27.02;67.51
62703;BME280;66022;50.448;18.122;2023-06-10T10:47:08;99128.69;;;26.89;69.29
62703;BME280;66022;50.448;18.122;2023-06-10T10:51:15;99127.86;;;26.68;70.20
62703;BME280;66022;50.448;18.122;2023-06-10T10:55:23;99128.29;;;26.36;71.99
62703;BME280;66022;50.448;18.122;2023-06-10T11:03:42;99125.05;;;25.90;72.25
62703;BME280;66022;50.448;18.122;2023-06-10T11:11:58;99118.38;;;25.49;72.55
62703;BME280;66022;50.448;18.122;2023-06-10T11:16:03;99116.13;;;25.31;74.36
62703;BME280;66022;50.448;18.122;2023-06-10T11:20:11;99112.58;;;25.20;74.16
62703;BME280;66022;50.448;18.122;2023-06-10T11:24:19;99108.23;;;25.18;71.85
62703;BME280;66022;50.448;18.122;2023-06-10T11:28:27;99104.44;;;25.25;67.41
62703;BME280;66022;50.448;18.122;2023-06-10T11:32:35;99100.61;;;25.39;64.05
62703;BME280;66022;50.448;18.122;2023-06-10T11:36:43;99096.90;;;25.55;66.32
62703;BME280;66022;50.448;18.122;2023-06-10T11:40:51;99093.42;;;25.73;65.65
62703;BME280;66022;50.448;18.122;2023-06-10T11:44:59;99090.21;;;25.89;65.05
62703;BME280;66022;50.448;18.122;2023-06-10T11:49:07;99089.29;;;26.01;65.99
62703;BME280;66022;50.448;18.122;2023-06-10T11:53:15;99088.51;;;26.06;65.41
62703;BME280;66022;50.448;18.122;2023-06-10T11:57:23;99087.50;;;25.97;67.54
62703;BME280;66022;50.448;18.122;2023-06-10T12:01:32;99086.44;;;25.92;67.60
62703;BME280;66022;50.448;18.122;2023-06-10T12:05:39;99084.13;;;25.79;70.77
62703;BME280;66022;50.448;18.122;2023-06-10T12:09:52;99081.81;;;25.66;70.48
62703;BME280;66022;50.448;18.122;2023-06-10T12:13:55;99079.85;;;25.50;71.94
62703;BME280;66022;50.448;18.122;2023-06-10T12:18:03;99077.09;;;25.30;72.13
62703;BME280;66022;50.448;18.122;2023-06-10T12:22:11;99073.44;;;25.15;72.00
62703;BME280;66022;50.448;18.122;2023-06-10T12:26:19;99070.64;;;25.01;72.04
62703;BME280;66022;50.448;18.122;2023-06-10T12:30:27;99068.20;;;24.92;69.81
62703;BME280;66022;50.448;18.122;2023-06-10T12:34:36;99066.52;;;24.85;69.63
62703;BME280;66022;50.448;18.122;2023-06-10T12:38:43;99067.96;;;24.78;70.55
62703;BME280;66022;50.448;18.122;2023-06-10T12:42:51;99068.08;;;24.76;69.69
62703;BME280;66022;50.448;18.122;2023-06-10T12:46:59;99067.16;;;24.77;67.78
62703;BME280;66022;50.448;18.122;2023-06-10T12:51:07;99066.00;;;24.80;68.58
62703;BME280;66022;50.448;18.122;2023-06-10T12:55:15;99065.48;;;24.86;68.38
62703;BME280;66022;50.448;18.122;2023-06-10T12:59:23;99064.86;;;24.99;68.43
62703;BME280;66022;50.448;18.122;2023-06-10T13:03:31;99063.48;;;25.13;63.11
62703;BME280;66022;50.448;18.122;2023-06-10T13:07:39;99061.74;;;25.25;60.37
62703;BME280;66022;50.448;18.122;2023-06-10T13:11:47;99058.86;;;25.38;62.96
62703;BME280;66022;50.448;18.122;2023-06-10T13:15:55;99057.97;;;25.44;61.55
62703;BME280;66022;50.448;18.122;2023-06-10T13:20:03;99057.03;;;25.50;63.81
62703;BME280;66022;50.448;18.122;2023-06-10T13:24:11;99057.25;;;25.53;62.56
62703;BME280;66022;50.448;18.122;2023-06-10T13:28:19;99057.70;;;25.49;61.79
62703;BME280;66022;50.448;18.122;2023-06-10T13:32:27;99058.25;;;25.46;60.86
62703;BME280;66022;50.448;18.122;2023-06-10T13:36:35;99060.19;;;25.37;61.13
62703;BME280;66022;50.448;18.122;2023-06-10T13:40:43;99064.59;;;25.27;60.77
62703;BME280;66022;50.448;18.122;2023-06-10T13:44:51;99070.76;;;25.12;61.73
62703;BME280;66022;50.448;18.122;2023-06-10T13:48:59;99079.60;;;24.95;57.61
62703;BME280;66022;50.448;18.122;2023-06-10T13:53:07;99087.00;;;24.71;60.00
62703;BME280;66022;50.448;18.122;2023-06-10T13:57:15;99092.50;;;24.40;66.78
62703;BME280;66022;50.448;18.122;2023-06-10T14:01:23;99094.40;;;24.00;69.93
62703;BME280;66022;50.448;18.122;2023-06-10T14:05:31;99091.42;;;23.54;71.53
62703;BME280;66022;50.448;18.122;2023-06-10T14:09:39;99087.70;;;23.15;68.28
62703;BME280;66022;50.448;18.122;2023-06-10T14:13:47;99080.24;;;22.78;66.95
62703;BME280;66022;50.448;18.122;2023-06-10T14:17:55;99073.38;;;22.43;65.69
62703;BME280;66022;50.448;18.122;2023-06-10T14:22:03;99066.94;;;22.17;66.10
62703;BME280;66022;50.448;18.122;2023-06-10T14:26:11;99062.31;;;21.94;68.40
62703;BME280;66022;50.448;18.122;2023-06-10T14:30:19;99059.68;;;21.76;70.58
62703;BME280;66022;50.448;18.122;2023-06-10T14:34:27;99056.41;;;21.60;73.19
62703;BME280;66022;50.448;18.122;2023-06-10T14:38:35;99054.02;;;21.46;73.54
62703;BME280;66022;50.448;18.122;2023-06-10T14:42:43;99053.83;;;21.35;74.30
62703;BME280;66022;50.448;18.122;2023-06-10T14:46:51;99054.81;;;21.27;76.31
62703;BME280;66022;50.448;18.122;2023-06-10T14:50:59;99056.20;;;21.22;74.18
62703;BME280;66022;50.448;18.122;2023-06-10T14:55:07;99059.81;;;21.21;73.45
62703;BME280;66022;50.448;18.122;2023-06-10T14:59:15;99063.32;;;21.23;74.49
62703;BME280;66022;50.448;18.122;2023-06-10T15:03:23;99066.30;;;21.28;74.16
62703;BME280;66022;50.448;18.122;2023-06-10T15:07:33;99069.60;;;21.34;73.90
62703;BME280;66022;50.448;18.122;2023-06-10T15:11:40;99071.62;;;21.42;74.10
62703;BME280;66022;50.448;18.122;2023-06-10T15:15:47;99072.88;;;21.49;76.99
62703;BME280;66022;50.448;18.122;2023-06-10T15:19:55;99072.97;;;21.58;74.36
62703;BME280;66022;50.448;18.122;2023-06-10T15:24:03;99072.60;;;21.66;73.63
62703;BME280;66022;50.448;18.122;2023-06-10T15:28:11;99073.57;;;21.71;73.47
62703;BME280;66022;50.448;18.122;2023-06-10T15:32:19;99075.39;;;21.78;74.42
62703;BME280;66022;50.448;18.122;2023-06-10T15:36:27;99077.28;;;21.84;75.75
62703;BME280;66022;50.448;18.122;2023-06-10T15:40:35;99080.98;;;21.92;76.70
62703;BME280;66022;50.448;18.122;2023-06-10T15:44:43;99083.53;;;22.00;76.39
62703;BME280;66022;50.448;18.122;2023-06-10T15:48:51;99086.67;;;22.07;75.85
62703;BME280;66022;50.448;18.122;2023-06-10T15:52:59;99088.02;;;22.15;76.32
62703;BME280;66022;50.448;18.122;2023-06-10T15:57:07;99089.18;;;22.22;77.23
62703;BME280;66022;50.448;18.122;2023-06-10T16:01:15;99091.27;;;22.29;75.83
62703;BME280;66022;50.448;18.122;2023-06-10T16:05:23;99092.50;;;22.33;75.67
62703;BME280;66022;50.448;18.122;2023-06-10T16:09:31;99094.12;;;22.38;74.48
62703;BME280;66022;50.448;18.122;2023-06-10T16:13:39;99095.70;;;22.44;74.72
62703;BME280;66022;50.448;18.122;2023-06-10T16:17:47;99096.80;;;22.45;75.65
62703;BME280;66022;50.448;18.122;2023-06-10T16:21:55;99097.25;;;22.50;74.86
62703;BME280;66022;50.448;18.122;2023-06-10T16:26:03;99096.92;;;22.55;77.40
62703;BME280;66022;50.448;18.122;2023-06-10T16:30:12;99095.65;;;22.62;74.67
62703;BME280;66022;50.448;18.122;2023-06-10T16:34:19;99094.80;;;22.68;74.91
62703;BME280;66022;50.448;18.122;2023-06-10T16:38:27;99093.45;;;22.74;75.06
62703;BME280;66022;50.448;18.122;2023-06-10T16:42:35;99092.69;;;22.79;74.99
62703;BME280;66022;50.448;18.122;2023-06-10T16:46:43;99092.97;;;22.83;76.45
62703;BME280;66022;50.448;18.122;2023-06-10T16:50:51;99096.69;;;22.88;75.97
62703;BME280;66022;50.448;18.122;2023-06-10T16:54:59;99100.92;;;22.92;74.77
62703;BME280;66022;50.448;18.122;2023-06-10T16:59:11;99105.92;;;22.97;75.21
62703;BME280;66022;50.448;18.122;2023-06-10T17:03:15;99110.50;;;23.01;74.65
62703;BME280;66022;50.448;18.122;2023-06-10T17:07:23;99114.73;;;23.03;76.25
62703;BME280;66022;50.448;18.122;2023-06-10T17:11:31;99120.61;;;23.05;75.25
62703;BME280;66022;50.448;18.122;2023-06-10T17:15:39;99127.40;;;23.04;80.19
62703;BME280;66022;50.448;18.122;2023-06-10T17:19:47;99131.92;;;23.04;75.45
62703;BME280;66022;50.448;18.122;2023-06-10T17:23:55;99136.67;;;23.03;77.07
62703;BME280;66022;50.448;18.122;2023-06-10T17:28:03;99141.67;;;22.98;76.41
62703;BME280;66022;50.448;18.122;2023-06-10T17:32:11;99146.06;;;22.96;76.58
62703;BME280;66022;50.448;18.122;2023-06-10T17:36:19;99150.22;;;22.93;77.83
62703;BME280;66022;50.448;18.122;2023-06-10T17:40:30;99153.36;;;22.91;76.39
62703;BME280;66022;50.448;18.122;2023-06-10T17:44:35;99156.44;;;22.89;76.05
62703;BME280;66022;50.448;18.122;2023-06-10T17:48:43;99158.92;;;22.86;77.12
62703;BME280;66022;50.448;18.122;2023-06-10T18:31:32;99201.51;;;22.35;74.80
62703;BME280;66022;50.448;18.122;2023-06-10T18:35:40;99205.55;;;22.20;77.17
62703;BME280;66022;50.448;18.122;2023-06-10T18:39:49;99209.20;;;22.07;75.80
62703;BME280;66022;50.448;18.122;2023-06-10T18:43:57;99212.11;;;21.92;75.62
62703;BME280;66022;50.448;18.122;2023-06-10T18:48:04;99215.59;;;21.73;76.70
62703;BME280;66022;50.448;18.122;2023-06-10T18:52:12;99219.56;;;21.58;76.59
62703;BME280;66022;50.448;18.122;2023-06-10T18:56:20;99223.91;;;21.39;78.74
62703;BME280;66022;50.448;18.122;2023-06-10T19:00:29;99229.16;;;21.24;77.12
62703;BME280;66022;50.448;18.122;2023-06-10T19:04:36;99235.25;;;21.07;77.16
62703;BME280;66022;50.448;18.122;2023-06-10T19:08:44;99240.81;;;20.92;78.13
62703;BME280;66022;50.448;18.122;2023-06-10T19:12:52;99245.82;;;20.78;78.76
62703;BME280;66022;50.448;18.122;2023-06-10T19:17:00;99250.17;;;20.64;80.35
62703;BME280;66022;50.448;18.122;2023-06-10T19:21:08;99255.39;;;20.53;79.47
62703;BME280;66022;50.448;18.122;2023-06-10T19:25:16;99260.57;;;20.43;79.75
62703;BME280;66022;50.448;18.122;2023-06-10T19:29:24;99264.42;;;20.33;81.62
62703;BME280;66022;50.448;18.122;2023-06-10T19:33:32;99268.73;;;20.24;81.05
62703;BME280;66022;50.448;18.122;2023-06-10T19:37:41;99270.54;;;20.14;82.14
62703;BME280;66022;50.448;18.122;2023-06-10T19:41:49;99272.10;;;20.07;82.06
62703;BME280;66022;50.448;18.122;2023-06-10T19:45:56;99274.24;;;19.96;85.60
62703;BME280;66022;50.448;18.122;2023-06-10T19:50:05;99276.37;;;19.90;80.79
62703;BME280;66022;50.448;18.122;2023-06-10T19:54:12;99278.91;;;19.83;81.27
62703;BME280;66022;50.448;18.122;2023-06-10T19:58:20;99281.34;;;19.75;81.36
62703;BME280;66022;50.448;18.122;2023-06-10T20:02:29;99283.97;;;19.69;80.01
62703;BME280;66022;50.448;18.122;2023-06-10T20:06:38;99285.61;;;19.62;82.63
62703;BME280;66022;50.448;18.122;2023-06-10T20:10:44;99287.53;;;19.58;80.50
62703;BME280;66022;50.448;18.122;2023-06-10T20:14:52;99288.85;;;19.52;80.48
62703;BME280;66022;50.448;18.122;2023-06-10T20:19:00;99291.22;;;19.47;80.50
62703;BME280;66022;50.448;18.122;2023-06-10T20:23:08;99293.30;;;19.43;80.76
62703;BME280;66022;50.448;18.122;2023-06-10T20:27:16;99294.92;;;19.39;80.57
62703;BME280;66022;50.448;18.122;2023-06-10T20:31:24;99296.31;;;19.35;80.15
62703;BME280;66022;50.448;18.122;2023-06-10T20:35:32;99296.53;;;19.30;81.62
62703;BME280;66022;50.448;18.122;2023-06-10T20:39:41;99296.91;;;19.27;79.36
62703;BME280;66022;50.448;18.122;2023-06-10T20:43:48;99297.20;;;19.23;80.32
62703;BME280;66022;50.448;18.122;2023-06-10T20:47:57;99296.99;;;19.16;80.02
62703;BME280;66022;50.448;18.122;2023-06-10T20:52:04;99297.02;;;19.13;79.97
62703;BME280;66022;50.448;18.122;2023-06-10T20:56:13;99297.52;;;19.07;82.67
62703;BME280;66022;50.448;18.122;2023-06-10T21:00:21;99298.02;;;19.04;79.18
62703;BME280;66022;50.448;18.122;2023-06-10T21:04:29;99299.47;;;19.01;78.96
62703;BME280;66022;50.448;18.122;2023-06-10T21:08:36;99301.20;;;18.97;79.41
62703;BME280;66022;50.448;18.122;2023-06-10T21:12:45;99302.99;;;18.94;79.29
62703;BME280;66022;50.448;18.122;2023-06-10T21:16:53;99304.32;;;18.90;80.76
62703;BME280;66022;50.448;18.122;2023-06-10T21:21:01;99306.08;;;18.88;79.17
62703;BME280;66022;50.448;18.122;2023-06-10T21:25:09;99307.62;;;18.84;79.52
62703;BME280;66022;50.448;18.122;2023-06-10T21:29:17;99309.29;;;18.81;79.60
62703;BME280;66022;50.448;18.122;2023-06-10T21:33:25;99309.99;;;18.78;79.45
62703;BME280;66022;50.448;18.122;2023-06-10T21:37:33;99311.69;;;18.75;80.36
62703;BME280;66022;50.448;18.122;2023-06-10T21:41:41;99312.72;;;18.73;80.19
62703;BME280;66022;50.448;18.122;2023-06-10T21:45:49;99314.95;;;18.69;82.33
62703;BME280;66022;50.448;18.122;2023-06-10T21:49:57;99316.83;;;18.68;79.16
62703;BME280;66022;50.448;18.122;2023-06-10T21:54:05;99319.62;;;18.67;79.67
62703;BME280;66022;50.448;18.122;2023-06-10T21:58:13;99321.25;;;18.63;81.07
62703;BME280;66022;50.448;18.122;2023-06-10T22:02:20;99322.15;;;18.61;80.36
62703;BME280;66022;50.448;18.122;2023-06-10T22:06:29;99322.85;;;18.57;82.51
62703;BME280;66022;50.448;18.122;2023-06-10T22:10:37;99320.79;;;18.55;81.37
62703;BME280;66022;50.448;18.122;2023-06-10T22:14:45;99319.58;;;18.52;83.56
62703;BME280;66022;50.448;18.122;2023-06-10T22:18:53;99316.88;;;18.48;82.96
62703;BME280;66022;50.448;18.122;2023-06-10T22:23:01;99314.51;;;18.45;83.49
62703;BME280;66022;50.448;18.122;2023-06-10T22:27:08;99312.73;;;18.42;84.49